Time;durP1;ratioP1;P1;durP2;ratioP2;P2;SDS_P1;SDS_P2;PMS_P1;PMS_P2;Temp;Humidity;BMP_temperature;BMP_pressure;BME280_temperature;BME280_humidity;BME280_pressure;Samples;Min_cycle;Max_cycle;Signal;HPM_P1;HPM_P2
2022/11/02 00:01:50;;;;;;;5.88;1.90;;;;;;;15.58;71.25;101330.19;5012190;28;20026;-38
2022/11/02 00:04:15;;;;;;;6.50;2.05;;;;;;;15.80;69.74;101320.53;5012293;28;20032;-38
2022/11/02 00:06:41;;;;;;;5.97;1.90;;;;;;;15.81;69.48;101324.91;5012491;28;20113;-38
2022/11/02 00:09:07;;;;;;;5.25;1.70;;;;;;;15.79;69.32;101343.34;5010920;28;20061;-35
2022/11/02 00:11:32;;;;;;;6.28;1.90;;;;;;;15.37;70.98;101364.28;5012102;28;20025;-41
2022/11/02 00:13:57;;;;;;;5.80;1.30;;;;;;;14.44;69.22;101390.22;5012086;28;20025;-37
2022/11/02 00:16:24;;;;;;;8.13;0.95;;;;;;;13.94;69.56;101415.16;5010978;28;20083;-39
2022/11/02 00:18:54;;;;;;;4.55;1.00;;;;;;;14.36;69.25;101381.38;5012606;28;20075;-39
2022/11/02 00:21:20;;;;;;;8.25;1.33;;;;;;;13.76;71.28;101356.50;5012306;28;20049;-38
2022/11/02 00:23:47;;;;;;;4.72;1.13;;;;;;;13.73;72.12;101371.28;5012414;28;20048;-40
2022/11/02 00:26:12;;;;;;;6.10;0.98;;;;;;;13.92;71.66;101351.34;5012617;28;20084;-38
2022/11/02 00:28:38;;;;;;;5.82;1.20;;;;;;;13.81;70.94;101298.88;5011698;28;20034;-38
2022/11/02 00:31:03;;;;;;;6.35;1.23;;;;;;;13.92;71.83;101314.66;5012352;28;20073;-39
2022/11/02 00:33:28;;;;;;;6.53;1.10;;;;;;;14.04;71.27;101309.50;5014240;28;20067;-39
2022/11/02 00:35:54;;;;;;;5.90;1.20;;;;;;;14.23;70.63;101303.50;5016237;28;20052;-37
2022/11/02 00:38:19;;;;;;;5.38;1.20;;;;;;;14.36;70.13;101321.03;5016885;28;20026;-38
2022/11/02 00:40:45;;;;;;;3.25;0.82;;;;;;;14.37;69.94;101317.59;5015154;28;20021;-38
2022/11/02 00:43:10;;;;;;;6.82;1.10;;;;;;;14.39;69.81;101312.38;5013019;28;20053;-38
2022/11/02 00:45:36;;;;;;;4.22;0.80;;;;;;;14.19;70.10;101315.72;5011762;28;20587;-38
2022/11/02 00:48:01;;;;;;;4.82;0.70;;;;;;;13.93;69.02;101316.41;5011442;28;20034;-39
2022/11/02 00:50:26;;;;;;;4.63;0.68;;;;;;;13.98;68.73;101318.19;5011104;28;20068;-39
2022/11/02 00:52:52;;;;;;;3.78;0.50;;;;;;;13.79;68.62;101325.06;5012181;28;20117;-43
2022/11/02 00:55:17;;;;;;;2.67;0.63;;;;;;;13.89;68.04;101320.78;5011858;28;20109;-39
2022/11/02 00:57:43;;;;;;;5.65;0.63;;;;;;;14.08;67.41;101313.91;5011608;28;20293;-39
2022/11/02 01:00:10;;;;;;;4.95;0.80;;;;;;;13.80;67.34;101315.44;5011483;28;20490;-42
2022/11/02 01:02:36;;;;;;;4.18;0.65;;;;;;;13.60;68.98;101315.28;5011442;28;20550;-39
2022/11/02 01:05:02;;;;;;;6.45;0.80;;;;;;;13.90;68.16;101316.41;5011692;28;20049;-39
2022/11/02 01:07:28;;;;;;;4.18;1.00;;;;;;;13.98;67.61;101323.44;5011617;28;20422;-39
2022/11/02 01:09:53;;;;;;;8.63;0.90;;;;;;;14.01;67.21;101318.22;5011374;28;20025;-39
2022/11/02 01:12:19;;;;;;;6.00;0.90;;;;;;;13.94;66.74;101315.56;5011299;28;20030;-38
2022/11/02 01:14:48;;;;;;;3.42;0.80;;;;;;;13.99;66.46;101317.34;5011853;28;20038;-38
2022/11/02 01:17:14;;;;;;;8.35;1.13;;;;;;;13.47;68.18;101328.28;5011950;28;20026;-42
2022/11/02 01:19:39;;;;;;;5.72;0.82;;;;;;;13.79;67.32;101314.56;5011791;28;20041;-40
2022/11/02 01:22:05;;;;;;;3.72;0.80;;;;;;;13.75;67.37;101318.03;5012060;28;20068;-40
2022/11/02 01:24:30;;;;;;;5.65;0.93;;;;;;;13.89;67.22;101326.00;5012441;28;20109;-41
2022/11/02 01:26:55;;;;;;;8.90;0.85;;;;;;;14.00;66.87;101331.31;5011913;28;20021;-39
2022/11/02 01:29:21;;;;;;;8.10;1.45;;;;;;;13.81;67.30;101330.31;5013522;28;20029;-40
2022/11/02 01:31:47;;;;;;;4.93;1.00;;;;;;;13.95;66.97;101317.31;5011921;28;20037;-39
2022/11/02 01:34:13;;;;;;;9.30;1.05;;;;;;;13.82;67.05;101314.59;5010216;28;20441;-39
2022/11/02 01:36:38;;;;;;;8.32;1.13;;;;;;;13.89;67.39;101317.28;5011652;28;20030;-39
2022/11/02 01:39:04;;;;;;;9.63;1.20;;;;;;;13.74;67.88;101315.41;5012348;28;20501;-39
2022/11/02 01:41:29;;;;;;;6.30;1.00;;;;;;;13.84;68.00;101313.75;5013167;28;20022;-40
2022/11/02 01:43:57;;;;;;;9.27;1.27;;;;;;;13.50;69.05;101310.84;5014009;28;20041;-39
2022/11/02 01:46:45;;;;;;;4.63;1.00;;;;;;;13.82;68.36;101301.50;5014747;28;20123;-43
2022/11/02 01:49:17;;;;;;;8.63;1.40;;;;;;;14.01;68.20;101292.00;5015090;28;20116;-39
2022/11/02 01:51:54;;;;;;;6.55;1.05;;;;;;;13.79;68.18;101297.97;5014452;28;20545;-38
2022/11/02 01:54:25;;;;;;;8.00;1.02;;;;;;;13.91;67.88;101302.41;5014643;28;20053;-44
2022/11/02 01:56:55;;;;;;;8.40;1.25;;;;;;;14.38;66.18;101300.13;5013789;28;20413;-39
2022/11/02 01:59:28;;;;;;;6.05;1.10;;;;;;;14.18;67.32;101316.59;5009675;28;20400;-38
2022/11/02 02:01:54;;;;;;;10.98;1.27;;;;;;;14.48;65.76;101312.38;5010347;28;20021;-41
2022/11/02 02:04:21;;;;;;;6.47;0.98;;;;;;;14.39;66.30;101321.13;5009448;28;20504;-39
2022/11/02 02:06:48;;;;;;;5.38;0.90;;;;;;;14.44;66.84;101324.63;5010922;28;20034;-41
2022/11/02 02:09:14;;;;;;;5.25;1.10;;;;;;;14.68;65.79;101325.59;5011189;28;20026;-38
2022/11/02 02:11:40;;;;;;;5.93;1.05;;;;;;;14.56;65.85;101316.81;5010602;28;20037;-39
2022/11/02 02:14:08;;;;;;;10.23;1.30;;;;;;;14.41;66.99;101319.34;5011024;28;20417;-39
2022/11/02 02:17:05;;;;;;;7.95;1.17;;;;;;;14.78;66.33;101307.25;5011272;28;20099;-39
2022/11/02 02:19:49;;;;;;;5.65;1.20;;;;;;;15.02;65.63;101315.19;5010635;28;20030;-39
2022/11/02 02:22:42;;;;;;;7.15;1.33;;;;;;;14.81;66.51;101312.53;5010162;28;20108;-42
2022/11/02 02:25:31;;;;;;;7.03;1.23;;;;;;;14.57;67.24;101315.06;5009944;28;20029;-39
2022/11/02 02:28:13;;;;;;;7.15;1.45;;;;;;;14.78;66.57;101323.00;5010491;28;20215;-39
2022/11/02 02:30:54;;;;;;;7.13;1.30;;;;;;;14.70;66.24;101324.72;5010017;28;20109;-38
2022/11/02 02:33:29;;;;;;;5.85;1.20;;;;;;;15.01;65.44;101317.81;5009199;28;20069;-41
2022/11/02 02:36:09;;;;;;;7.50;1.48;;;;;;;14.46;67.70;101319.38;5010289;28;20029;-38
2022/11/02 02:38:43;;;;;;;5.90;1.30;;;;;;;14.75;66.90;101323.00;5010081;28;20584;-39
2022/11/02 02:41:22;;;;;;;4.97;1.23;;;;;;;14.73;66.96;101324.75;5010182;28;20028;-39
2022/11/02 02:43:51;;;;;;;6.88;1.23;;;;;;;14.60;67.10;101317.69;5008982;28;20029;-40
2022/11/02 02:46:19;;;;;;;5.32;1.10;;;;;;;14.85;66.51;101316.03;5010365;28;20026;-41
2022/11/02 02:48:46;;;;;;;6.53;1.35;;;;;;;14.65;66.87;101305.44;5008743;28;20076;-42
2022/11/02 02:51:18;;;;;;;6.75;1.40;;;;;;;14.52;67.05;101320.28;5010076;28;20033;-39
2022/11/02 02:53:49;;;;;;;9.38;1.23;;;;;;;14.34;67.95;101311.41;5009933;28;20048;-39
2022/11/02 02:56:17;;;;;;;5.68;1.52;;;;;;;14.76;65.81;101300.25;5012142;28;20018;-39
2022/11/02 02:58:52;;;;;;;5.82;1.42;;;;;;;14.77;66.23;101316.00;5013542;28;20033;-40
2022/11/02 03:01:18;;;;;;;6.43;1.60;;;;;;;14.84;65.56;101319.50;5013418;28;20040;-38
2022/11/02 03:03:44;;;;;;;8.48;1.80;;;;;;;14.59;67.27;101314.19;5013390;28;20367;-39
2022/11/02 03:06:21;;;;;;;5.88;1.60;;;;;;;14.66;67.02;101316.84;5013689;28;20088;-39
2022/11/02 03:09:07;;;;;;;7.00;1.75;;;;;;;14.69;67.68;101322.09;5034636;23;20509;-44
2022/11/02 03:11:36;;;;;;;11.57;1.83;;;;;;;14.35;68.95;101327.16;5014334;28;20107;-44
2022/11/02 03:14:24;;;;;;;12.73;2.30;;;;;;;14.57;68.75;101331.69;5014568;28;20080;-45
2022/11/02 03:17:15;;;;;;;7.95;1.73;;;;;;;14.46;68.38;101332.47;5014624;28;20606;-42
2022/11/02 03:19:54;;;;;;;10.18;1.77;;;;;;;14.66;67.96;101345.69;5013865;28;20584;-43
2022/11/02 03:22:49;;;;;;;6.43;1.80;;;;;;;14.68;68.20;101341.34;5013479;28;20142;-42
2022/11/02 03:25:34;;;;;;;;;;;;;;;14.45;69.27;101349.13;5013645;28;20483;-47
2022/11/02 03:28:17;;;;;;;13.65;2.00;;;;;;;14.86;68.24;101351.91;5013298;28;20102;-44
2022/11/02 03:30:49;;;;;;;9.80;2.10;;;;;;;14.93;68.39;101359.81;5012849;28;20037;-49
2022/11/02 03:33:32;;;;;;;12.45;2.67;;;;;;;14.65;69.62;101367.56;5013781;28;20056;-44
2022/11/02 03:36:05;;;;;;;13.07;2.20;;;;;;;14.47;71.33;101361.34;5013117;28;20026;-44
2022/11/02 03:38:48;;;;;;;13.03;2.50;;;;;;;14.47;71.52;101377.09;5014561;28;20018;-45
2022/11/02 03:41:16;;;;;;;12.77;2.50;;;;;;;14.61;71.29;101378.06;5014791;28;20068;-44
2022/11/02 03:43:44;;;;;;;10.18;2.53;;;;;;;14.70;71.07;101402.59;5014353;28;20033;-45
2022/11/02 03:46:10;;;;;;;12.25;3.05;;;;;;;14.81;70.80;101396.53;5014938;28;20076;-46
2022/11/02 03:48:43;;;;;;;12.88;2.00;;;;;;;14.73;71.04;101389.47;5014072;28;20109;-43
2022/11/02 03:51:13;;;;;;;12.73;2.10;;;;;;;14.73;70.92;101392.97;5014264;28;20116;-43
2022/11/02 03:53:57;;;;;;;10.95;1.98;;;;;;;14.95;70.46;101401.81;5012920;28;20026;-43
2022/11/02 03:56:33;;;;;;;12.88;2.05;;;;;;;14.66;71.51;101401.69;5012639;28;20446;-46
2022/11/02 03:58:58;;;;;;;10.98;1.98;;;;;;;14.80;70.66;101405.25;5012738;28;20798;-43
2022/11/02 04:01:26;;;;;;;13.20;1.98;;;;;;;14.88;70.40;101405.31;5012804;28;20026;-44
2022/11/02 04:03:51;;;;;;;12.95;1.98;;;;;;;14.79;70.46;101406.13;5012612;28;20113;-43
2022/11/02 04:06:17;;;;;;;11.32;2.10;;;;;;;14.50;71.61;101426.09;5011490;28;20109;-46
2022/11/02 04:08:45;;;;;;;14.63;2.00;;;;;;;14.78;70.91;101433.25;5011827;28;20038;-50
2022/11/02 04:16:39;;;;;;;11.38;1.63;;;;;;;14.81;70.78;101463.91;5013327;28;20041;-45
2022/11/02 04:27:17;;;;;;;9.38;1.33;;;;;;;13.91;69.55;101492.00;5012067;28;20037;-46
2022/11/02 04:29:42;;;;;;;8.80;1.30;;;;;;;14.00;68.94;101492.13;5011756;28;20033;-44
2022/11/02 04:32:07;;;;;;;7.65;1.20;;;;;;;14.44;67.73;101499.50;5011642;28;20137;-45
2022/11/02 04:34:33;;;;;;;9.70;1.77;;;;;;;14.30;69.00;101507.22;5011801;28;20160;-45
2022/11/02 04:36:58;;;;;;;11.65;1.70;;;;;;;14.20;68.85;101510.66;5011885;28;20398;-46
2022/11/02 04:39:23;;;;;;;13.02;1.75;;;;;;;14.20;68.37;101510.66;5012107;28;20029;-44
2022/11/02 04:41:49;;;;;;;9.40;1.52;;;;;;;14.47;67.97;101525.75;5012783;28;20024;-45
2022/11/02 04:44:14;;;;;;;10.80;1.50;;;;;;;14.29;69.12;101525.56;5014635;28;20116;-48
2022/11/02 04:46:41;;;;;;;10.80;1.65;;;;;;;14.25;69.03;101529.94;5014395;28;20056;-43
2022/11/02 04:49:07;;;;;;;13.85;1.92;;;;;;;14.38;68.38;101529.22;5011436;28;20126;-51
2022/11/02 04:51:33;;;;;;;9.10;1.40;;;;;;;14.38;68.98;101536.19;5011268;28;20454;-47
2022/11/02 04:53:59;;;;;;;8.85;1.52;;;;;;;14.10;69.87;101542.88;5011510;28;20018;-48
2022/11/02 04:56:26;;;;;;;10.40;1.65;;;;;;;14.02;68.76;101534.09;5011593;28;20038;-47
2022/11/02 04:58:54;;;;;;;9.25;1.63;;;;;;;14.36;68.32;101538.75;5011251;28;20540;-45
2022/11/02 05:01:20;;;;;;;8.82;1.50;;;;;;;14.31;67.74;101547.47;5012172;28;20022;-45
2022/11/02 05:03:50;;;;;;;10.45;1.50;;;;;;;14.68;66.24;101549.56;5016233;28;20514;-45
2022/11/02 05:06:17;;;;;;;12.85;1.50;;;;;;;14.31;67.57;101563.19;5017103;28;20034;-45
2022/11/02 05:08:42;;;;;;;6.10;1.30;;;;;;;14.38;67.89;101583.41;5015762;28;20029;-47
2022/11/02 05:11:09;;;;;;;9.20;1.88;;;;;;;14.35;67.45;101585.94;5011407;28;20121;-43
2022/11/02 05:13:35;;;;;;;7.95;1.40;;;;;;;14.38;66.76;101586.91;5012793;28;20057;-46
2022/11/02 05:16:00;;;;;;;12.80;1.60;;;;;;;14.25;64.94;101595.50;5013159;28;20326;-45
2022/11/02 05:18:27;;;;;;;8.57;1.48;;;;;;;14.49;64.93;101601.00;5014049;28;20168;-43
2022/11/02 05:20:54;;;;;;;11.52;1.55;;;;;;;14.28;65.69;101597.25;5015670;28;20026;-48
2022/11/02 05:23:22;;;;;;;9.82;1.40;;;;;;;14.60;63.44;101601.97;5015706;28;20160;-43
2022/11/02 05:25:55;;;;;;;6.60;1.20;;;;;;;14.11;64.14;101600.59;5011705;28;20479;-42
2022/11/02 05:28:21;;;;;;;6.28;1.60;;;;;;;14.58;62.74;101616.81;5011280;28;20018;-43
2022/11/02 05:30:47;;;;;;;8.15;1.02;;;;;;;14.30;63.29;101616.50;5011973;28;20034;-44
2022/11/02 05:33:12;;;;;;;9.98;1.17;;;;;;;14.46;63.92;101623.69;5011659;28;20433;-43
2022/11/02 05:35:37;;;;;;;7.93;1.30;;;;;;;14.63;63.13;101627.38;5010777;28;20025;-49
2022/11/02 05:38:02;;;;;;;8.75;1.10;;;;;;;14.85;62.31;101631.91;5010264;28;20022;-44
2022/11/02 05:40:28;;;;;;;9.13;1.30;;;;;;;14.67;63.88;101642.28;5010358;28;20164;-44
2022/11/02 05:43:00;;;;;;;7.00;1.10;;;;;;;14.37;64.09;101649.81;5010850;28;20014;-45
2022/11/02 05:45:25;;;;;;;6.85;1.10;;;;;;;14.40;63.98;101649.88;5010449;28;20033;-42
2022/11/02 05:47:51;;;;;;;8.90;1.35;;;;;;;14.36;63.54;101651.56;5010694;28;20022;-44
2022/11/02 05:50:16;;;;;;;7.63;1.13;;;;;;;14.22;63.53;101669.75;5010371;28;20084;-56
2022/11/02 05:52:41;;;;;;;9.13;1.33;;;;;;;14.49;63.04;101663.09;5010647;28;20018;-45
2022/11/02 05:55:07;;;;;;;5.18;1.10;;;;;;;14.50;61.87;101670.09;5010351;28;20029;-47
2022/11/02 05:57:32;;;;;;;10.27;1.45;;;;;;;14.29;61.81;101683.81;5010247;28;20053;-50
2022/11/02 05:59:57;;;;;;;9.43;1.42;;;;;;;14.83;60.85;101687.88;5010387;28;20026;-45
2022/11/02 06:02:23;;;;;;;8.45;1.70;;;;;;;14.75;60.38;101684.34;5009012;28;20024;-45
2022/11/02 06:04:48;;;;;;;7.75;1.25;;;;;;;14.99;60.39;101687.19;5010534;28;20030;-43
2022/11/02 06:07:13;;;;;;;10.57;1.40;;;;;;;14.54;60.42;101691.13;5010164;28;20034;-47
2022/11/02 06:09:39;;;;;;;11.25;1.55;;;;;;;14.67;60.82;101696.50;5010228;28;20033;-42
2022/11/02 06:12:04;;;;;;;10.75;1.23;;;;;;;14.68;59.19;101703.50;5009907;28;20143;-43
2022/11/02 06:14:29;;;;;;;9.20;1.38;;;;;;;14.80;59.18;101716.75;5010806;28;20026;-44
2022/11/02 06:16:55;;;;;;;8.02;1.48;;;;;;;14.80;59.83;101714.13;5011539;28;20037;-43
2022/11/02 06:19:21;;;;;;;6.15;1.30;;;;;;;14.46;59.69;101724.28;5011691;28;20030;-44
2022/11/02 06:21:46;;;;;;;6.70;1.17;;;;;;;14.68;59.27;101724.50;5010389;28;20028;-49
2022/11/02 06:24:11;;;;;;;9.45;1.48;;;;;;;14.75;59.53;101724.59;5011175;28;20548;-42
2022/11/02 06:26:36;;;;;;;11.02;1.15;;;;;;;14.76;59.44;101738.59;5011193;28;20021;-44
2022/11/02 06:29:02;;;;;;;8.95;1.30;;;;;;;14.40;60.42;101745.19;5010403;28;20029;-44
2022/11/02 06:31:27;;;;;;;10.60;1.60;;;;;;;14.78;59.12;101742.97;5014005;28;20497;-44
2022/11/02 06:33:52;;;;;;;10.77;1.30;;;;;;;14.59;59.44;101755.03;5014283;28;20026;-46
2022/11/02 06:36:18;;;;;;;10.80;1.52;;;;;;;14.67;58.66;101764.75;5014547;28;20037;-43
2022/11/02 06:38:44;;;;;;;7.57;1.13;;;;;;;14.77;58.36;101761.34;5014141;28;20028;-44
2022/11/02 06:41:10;;;;;;;11.38;1.30;;;;;;;14.69;58.45;101763.91;5014140;28;20018;-44
2022/11/02 06:43:37;;;;;;;12.25;1.63;;;;;;;14.72;58.37;101777.03;5013950;28;20359;-44
2022/11/02 06:46:03;;;;;;;7.60;1.10;;;;;;;14.47;58.96;101793.38;5013852;28;20048;-44
2022/11/02 06:48:29;;;;;;;8.48;1.10;;;;;;;14.47;58.26;101791.63;5012413;28;20018;-42
2022/11/02 06:50:54;;;;;;;9.68;1.50;;;;;;;14.58;58.52;101802.25;5013945;28;20034;-44
2022/11/02 06:53:20;;;;;;;10.70;1.20;;;;;;;14.91;58.04;101804.38;5014085;28;20457;-46
2022/11/02 06:55:51;;;;;;;8.45;1.50;;;;;;;14.79;58.34;101817.38;5014630;28;20029;-46
2022/11/02 06:58:16;;;;;;;10.00;1.55;;;;;;;14.97;57.31;101814.94;5013882;28;20064;-44
2022/11/02 07:00:42;;;;;;;6.25;1.35;;;;;;;14.60;57.66;101813.66;5013666;28;20045;-49
2022/11/02 07:03:09;;;;;;;9.80;1.35;;;;;;;14.65;58.11;101838.19;5013758;28;20033;-46
2022/11/02 07:05:35;;;;;;;15.32;1.50;;;;;;;14.82;57.61;101825.28;5013621;28;20096;-46
2022/11/02 07:08:00;;;;;;;8.48;1.55;;;;;;;14.61;57.72;101839.91;5013365;28;20157;-51
2022/11/02 07:10:26;;;;;;;9.57;1.48;;;;;;;14.79;57.14;101846.25;5012964;28;20430;-42
2022/11/02 07:12:56;;;;;;;9.65;1.65;;;;;;;14.84;56.46;101853.31;5013450;28;20033;-43
2022/11/02 07:15:24;;;;;;;8.60;1.30;;;;;;;14.78;55.38;101842.75;5013717;28;20033;-47
2022/11/02 07:17:50;;;;;;;7.43;1.40;;;;;;;14.71;56.58;101848.78;5013701;28;20080;-48
2022/11/02 07:20:16;;;;;;;12.32;1.42;;;;;;;14.91;55.83;101849.00;5012978;28;20038;-44
2022/11/02 07:22:41;;;;;;;11.63;1.30;;;;;;;14.70;56.00;101865.38;5013652;28;20022;-47
2022/11/02 07:25:07;;;;;;;10.95;1.45;;;;;;;14.69;56.21;101863.66;5013285;28;20030;-43
2022/11/02 07:27:39;;;;;;;7.65;1.50;;;;;;;14.78;55.52;101863.75;5011118;28;20030;-43
2022/11/02 07:30:05;;;;;;;7.75;1.40;;;;;;;14.87;55.21;101878.72;5012139;28;20397;-42
2022/11/02 07:32:38;;;;;;;7.25;1.20;;;;;;;14.88;55.62;101876.09;5013915;28;20497;-42
2022/11/02 07:35:03;;;;;;;8.48;1.30;;;;;;;14.78;55.78;101870.72;5015037;28;20029;-45
2022/11/02 07:37:28;;;;;;;6.43;1.25;;;;;;;14.71;55.34;101876.75;5015025;28;20061;-43
2022/11/02 07:39:54;;;;;;;12.68;1.40;;;;;;;14.80;54.71;101877.78;5013144;28;20493;-52
2022/11/02 07:42:19;;;;;;;8.40;1.20;;;;;;;14.90;55.05;101887.50;5011713;28;20032;-44
2022/11/02 07:44:44;;;;;;;10.73;1.25;;;;;;;14.97;54.11;101885.84;5012646;28;20025;-46
2022/11/02 07:47:09;;;;;;;9.15;1.60;;;;;;;15.19;54.34;101890.44;5012869;28;20080;-44
2022/11/02 07:49:35;;;;;;;13.25;1.83;;;;;;;14.85;55.65;101893.56;5012988;28;20033;-42
2022/11/02 07:52:00;;;;;;;9.20;1.50;;;;;;;14.79;54.87;101897.00;5012241;28;20029;-43
2022/11/02 07:54:25;;;;;;;8.30;1.48;;;;;;;14.70;55.78;101889.00;5012902;28;20040;-45
2022/11/02 07:56:51;;;;;;;9.00;1.70;;;;;;;15.07;55.18;101902.56;5012382;28;20108;-44
2022/11/02 07:59:16;;;;;;;11.20;1.67;;;;;;;14.97;55.85;101907.72;5012218;28;20026;-45
2022/11/02 08:01:41;;;;;;;10.45;1.65;;;;;;;15.09;55.81;101921.88;5012658;28;20033;-46
2022/11/02 08:04:06;;;;;;;8.77;1.52;;;;;;;15.32;55.77;101915.09;5012183;28;20037;-43
2022/11/02 08:06:34;;;;;;;14.07;2.00;;;;;;;15.41;55.50;101918.72;5012438;28;20102;-47
2022/11/02 08:09:01;;;;;;;14.25;2.00;;;;;;;15.53;55.16;101925.88;5012217;28;20033;-48
2022/11/02 08:11:27;;;;;;;12.13;1.67;;;;;;;15.72;54.81;101925.19;5013270;28;20026;-47
2022/11/02 08:13:52;;;;;;;10.75;1.90;;;;;;;15.86;54.77;101927.91;5015297;28;20030;-47
2022/11/02 08:16:17;;;;;;;8.50;1.63;;;;;;;15.69;53.93;101933.03;5029766;28;20136;-43
2022/11/02 08:18:42;;;;;;;12.77;1.45;;;;;;;15.96;53.31;101935.03;5012767;28;20026;-46
2022/11/02 08:21:08;;;;;;;13.98;1.70;;;;;;;16.09;53.15;101936.03;5011625;28;20100;-44
2022/11/02 08:23:33;;;;;;;12.02;1.75;;;;;;;16.08;53.79;101936.88;5012273;28;20122;-44
2022/11/02 08:25:59;;;;;;;10.52;1.60;;;;;;;16.12;53.22;101936.91;5011996;28;20033;-49
2022/11/02 08:28:27;;;;;;;11.48;1.45;;;;;;;16.20;53.21;101939.59;5011784;28;20037;-44
2022/11/02 08:30:53;;;;;;;12.90;1.40;;;;;;;15.96;53.46;101942.94;5011502;28;20034;-47
2022/11/02 08:33:19;;;;;;;9.65;1.40;;;;;;;15.88;53.11;101949.88;5011557;28;20025;-44
2022/11/02 08:35:46;;;;;;;11.90;1.60;;;;;;;16.14;53.48;101945.72;5012104;28;20034;-47
2022/11/02 08:38:12;;;;;;;7.72;1.50;;;;;;;15.91;52.32;101947.28;5012012;28;20021;-46
2022/11/02 08:40:38;;;;;;;11.30;1.80;;;;;;;16.02;53.05;101955.25;5014579;28;20030;-48
2022/11/02 08:43:06;;;;;;;12.95;1.27;;;;;;;15.69;52.57;101950.56;5016737;28;20060;-47
2022/11/02 08:45:33;;;;;;;8.30;1.63;;;;;;;16.08;52.14;101955.31;5016984;28;20034;-43
2022/11/02 08:47:58;;;;;;;7.45;1.50;;;;;;;16.28;52.06;101956.34;5016722;28;20025;-43
2022/11/02 08:50:25;;;;;;;8.52;1.33;;;;;;;16.29;51.79;101965.97;5017389;28;20079;-46
2022/11/02 08:52:50;;;;;;;6.78;1.30;;;;;;;16.17;52.09;101966.75;5016054;28;20102;-46
2022/11/02 08:55:16;;;;;;;8.32;1.67;;;;;;;16.31;52.00;101974.78;5017193;28;20030;-52
2022/11/02 08:57:48;;;;;;;8.82;1.20;;;;;;;16.35;51.81;101975.66;5015860;28;20052;-44
2022/11/02 09:00:14;;;;;;;10.95;1.30;;;;;;;16.28;51.67;101977.41;5011925;28;20029;-45
2022/11/02 09:02:39;;;;;;;8.77;1.40;;;;;;;16.18;52.50;101973.78;5012182;28;20018;-43
2022/11/02 09:05:05;;;;;;;9.63;1.25;;;;;;;16.66;51.41;101982.94;5013049;28;20037;-48
2022/11/02 09:07:30;;;;;;;9.30;1.58;;;;;;;16.05;52.16;101992.09;5011524;28;20037;-46
2022/11/02 09:09:55;;;;;;;7.18;1.30;;;;;;;16.30;51.58;101978.25;5015503;23;20042;-43
2022/11/02 09:12:21;;;;;;;6.68;1.30;;;;;;;16.23;52.19;101987.84;4992095;28;20038;-42
2022/11/02 09:14:46;;;;;;;7.18;1.20;;;;;;;16.26;50.36;101984.38;4992756;28;20105;-42
2022/11/02 09:17:11;;;;;;;10.73;1.30;;;;;;;16.51;49.89;101990.72;4992784;28;20027;-42
2022/11/02 09:19:37;;;;;;;9.98;1.58;;;;;;;16.40;50.43;101992.41;4992468;28;20022;-41
2022/11/02 09:22:02;;;;;;;12.38;1.60;;;;;;;15.94;50.51;101988.47;4991725;28;20018;-41
2022/11/02 09:24:27;;;;;;;7.80;1.48;;;;;;;16.24;49.84;101988.75;4991892;28;20066;-42
2022/11/02 09:26:52;;;;;;;11.77;1.48;;;;;;;16.20;50.39;101992.22;4991713;28;20045;-41
2022/11/02 09:29:18;;;;;;;8.80;1.58;;;;;;;16.35;50.30;101999.34;4991364;28;20081;-41
2022/11/02 09:31:43;;;;;;;15.48;1.80;;;;;;;16.28;51.27;102010.72;4991310;28;20144;-41
2022/11/02 09:34:08;;;;;;;9.98;1.52;;;;;;;16.32;50.76;102004.59;4991500;28;20496;-42
2022/11/02 09:36:34;;;;;;;10.52;1.67;;;;;;;16.25;51.09;102014.19;4992737;28;20034;-40
2022/11/02 09:38:59;;;;;;;8.20;1.38;;;;;;;16.22;49.99;102011.56;4992414;28;20077;-43
2022/11/02 09:41:50;;;;;;;10.68;1.60;;;;;;;15.94;51.38;102007.78;4991617;28;20026;-43
2022/11/02 09:44:36;;;;;;;16.13;1.67;;;;;;;16.14;50.45;102016.75;4991446;28;20026;-41
2022/11/02 09:47:02;;;;;;;6.95;1.10;;;;;;;16.30;51.12;102016.84;4991746;28;20030;-42
2022/11/02 09:49:29;;;;;;;8.52;1.40;;;;;;;16.29;50.09;102008.06;4992070;28;20029;-44
2022/11/02 09:51:57;;;;;;;7.20;1.23;;;;;;;16.28;50.07;102011.59;4994285;28;20058;-39
2022/11/02 09:54:35;;;;;;;13.70;1.92;;;;;;;16.65;50.04;102020.66;4991899;28;20540;-43
2022/11/02 09:57:05;;;;;;;7.32;1.60;;;;;;;16.43;48.86;102018.72;4993703;28;20023;-42
2022/11/02 09:59:30;;;;;;;11.18;1.95;;;;;;;16.46;49.30;102017.00;4994384;28;20026;-40
2022/11/02 10:02:12;;;;;;;8.10;1.45;;;;;;;16.45;49.32;102015.25;4993455;28;20356;-43
2022/11/02 10:04:52;;;;;;;13.05;1.90;;;;;;;16.94;48.45;102018.22;4992265;28;20462;-43
2022/11/02 10:07:38;;;;;;;10.48;1.52;;;;;;;17.05;49.18;102011.25;4992254;28;20058;-46
2022/11/02 10:10:21;;;;;;;16.05;1.70;;;;;;;16.91;52.64;102018.19;4991931;28;20038;-40
2022/11/02 10:13:05;;;;;;;9.68;1.73;;;;;;;17.01;52.55;102022.66;4992234;28;20022;-42
2022/11/02 10:15:38;;;;;;;11.77;1.83;;;;;;;16.80;52.65;102019.88;4992955;28;20037;-40
2022/11/02 10:18:08;;;;;;;9.70;1.42;;;;;;;16.68;52.40;102025.06;4992940;28;20018;-42
2022/11/02 10:20:39;;;;;;;13.77;2.00;;;;;;;16.57;53.44;102027.59;4993079;28;20018;-42
2022/11/02 10:23:15;;;;;;;11.25;1.52;;;;;;;16.70;50.75;102039.13;4993797;28;20049;-41
2022/11/02 10:25:41;;;;;;;15.38;1.55;;;;;;;17.01;50.94;102041.09;4994073;28;20018;-42
2022/11/02 10:28:15;;;;;;;11.27;1.60;;;;;;;16.80;51.03;102049.75;4992489;28;20126;-41
2022/11/02 10:30:42;;;;;;;;;;;;;;;16.71;49.63;102046.19;4991692;28;20023;-41
2022/11/02 10:33:13;;;;;;;10.98;1.60;;;;;;;16.82;50.19;102052.38;4991425;28;19920;-41
2022/11/02 10:35:39;;;;;;;8.20;1.42;;;;;;;16.99;49.59;102043.72;4992491;28;20038;-44
2022/11/02 10:38:41;;;;;;;9.73;1.52;;;;;;;16.74;50.11;102051.44;4991870;28;20038;-43
2022/11/02 10:41:25;;;;;;;6.95;1.27;;;;;;;16.83;51.04;102062.91;4991561;28;20034;-44
2022/11/02 10:44:12;;;;;;;8.20;1.67;;;;;;;16.98;50.55;102060.38;4991877;28;20026;-42
2022/11/02 10:47:02;;;;;;;14.43;1.60;;;;;;;17.00;50.61;102061.28;4991674;28;20034;-43
2022/11/02 10:49:58;;;;;;;14.95;1.90;;;;;;;17.17;50.56;102064.00;4989635;28;20030;-40
2022/11/02 10:52:24;;;;;;;13.77;2.00;;;;;;;17.18;53.58;102065.78;4990424;28;20035;-41
2022/11/02 10:54:50;;;;;;;11.18;1.67;;;;;;;17.35;53.66;102063.22;4990365;28;20025;-40
2022/11/02 10:57:21;;;;;;;13.82;1.90;;;;;;;17.37;54.29;102064.09;4990711;28;20097;-41
2022/11/02 11:00:24;;;;;;;11.57;1.90;;;;;;;17.66;53.72;102062.50;4990837;28;20116;-46
2022/11/02 11:03:13;;;;;;;17.10;2.33;;;;;;;17.86;52.94;102054.63;4990540;28;20101;-44
2022/11/02 11:05:48;;;;;;;10.30;1.65;;;;;;;17.84;51.87;102053.75;4990983;28;20450;-43
2022/11/02 11:08:37;;;;;;;13.85;1.75;;;;;;;17.61;52.26;102052.81;4990825;28;20030;-44
2022/11/02 11:11:20;;;;;;;6.93;1.42;;;;;;;18.22;50.82;102046.78;4990325;28;20042;-41
2022/11/02 11:13:52;;;;;;;10.93;1.60;;;;;;;17.66;51.96;102035.22;4991420;28;20676;-44
2022/11/02 11:16:19;;;;;;;11.73;1.55;;;;;;;17.61;51.13;102036.97;4991037;28;20030;-41
2022/11/02 11:18:50;;;;;;;12.63;1.77;;;;;;;17.81;51.11;102032.63;4994321;28;20386;-42
2022/11/02 11:21:15;;;;;;;14.88;1.75;;;;;;;17.50;50.86;102041.31;4994078;28;20101;-40
2022/11/02 11:23:41;;;;;;;10.23;1.50;;;;;;;17.51;50.40;102043.94;4994094;28;20053;-42
2022/11/02 11:26:26;;;;;;;9.20;1.52;;;;;;;17.42;51.53;102052.72;4994347;28;20360;-44
2022/11/02 11:28:56;;;;;;;15.70;2.13;;;;;;;17.40;52.34;102059.72;4992862;28;20027;-42
2022/11/02 11:31:22;;;;;;;13.05;2.00;;;;;;;17.72;52.40;102065.16;4993709;28;20018;-41
2022/11/02 11:33:54;;;;;;;12.20;1.95;;;;;;;17.36;52.63;102059.72;4994047;28;20033;-42
2022/11/02 11:36:26;;;;;;;12.95;2.03;;;;;;;17.52;53.03;102065.91;4996661;28;20129;-42
2022/11/02 11:38:54;;;;;;;12.77;1.98;;;;;;;17.53;52.30;102060.66;4995349;28;20029;-41
2022/11/02 11:41:21;;;;;;;13.77;1.90;;;;;;;17.73;52.05;102051.09;4994863;28;20419;-43
2022/11/02 11:43:48;;;;;;;9.82;2.03;;;;;;;17.59;52.55;102046.59;4994976;28;20050;-43
2022/11/02 11:46:15;;;;;;;10.95;1.88;;;;;;;17.61;51.82;102045.78;4993458;28;20022;-42